sensor_id;sensor_type;location;lat;lon;timestamp;pressure;altitude;pressure_sealevel;temperature
75273;BMP280;63869;52.344;16.928;2023-02-15T04:00:26;102369.06;;;1.66
75273;BMP280;63869;52.344;16.928;2023-02-15T04:05:43;102354.00;;;1.67
75273;BMP280;63869;52.344;16.928;2023-02-15T04:08:15;102344.06;;;1.64
75273;BMP280;63869;52.344;16.928;2023-02-15T04:10:40;102339.88;;;1.63
75273;BMP280;63869;52.344;16.928;2023-02-15T04:13:19;102344.44;;;1.71
75273;BMP280;63869;52.344;16.928;2023-02-15T04:15:45;102342.56;;;1.71
75273;BMP280;63869;52.344;16.928;2023-02-15T04:18:40;102325.22;;;1.57
75273;BMP280;63869;52.344;16.928;2023-02-15T04:21:25;102331.97;;;1.63
75273;BMP280;63869;52.344;16.928;2023-02-15T04:24:09;102334.66;;;1.71
75273;BMP280;63869;52.344;16.928;2023-02-15T04:26:54;102340.72;;;1.72
75273;BMP280;63869;52.344;16.928;2023-02-15T04:29:20;102340.41;;;1.73
75273;BMP280;63869;52.344;16.928;2023-02-15T04:31:46;102323.94;;;1.68
75273;BMP280;63869;52.344;16.928;2023-02-15T04:34:12;102318.84;;;1.71
75273;BMP280;63869;52.344;16.928;2023-02-15T04:36:38;102313.38;;;1.68
75273;BMP280;63869;52.344;16.928;2023-02-15T04:39:04;102305.00;;;1.66
75273;BMP280;63869;52.344;16.928;2023-02-15T04:41:29;102322.19;;;1.77
75273;BMP280;63869;52.344;16.928;2023-02-15T04:43:55;102313.78;;;1.75
75273;BMP280;63869;52.344;16.928;2023-02-15T04:46:21;102315.81;;;1.78
75273;BMP280;63869;52.344;16.928;2023-02-15T04:48:46;102313.19;;;1.78
75273;BMP280;63869;52.344;16.928;2023-02-15T04:51:12;102307.13;;;1.77
75273;BMP280;63869;52.344;16.928;2023-02-15T04:53:37;102311.16;;;1.75
75273;BMP280;63869;52.344;16.928;2023-02-15T04:56:03;102314.25;;;1.77
75273;BMP280;63869;52.344;16.928;2023-02-15T04:58:28;102302.06;;;1.67
75273;BMP280;63869;52.344;16.928;2023-02-15T05:00:57;102316.41;;;1.75
75273;BMP280;63869;52.344;16.928;2023-02-15T05:03:23;102313.00;;;1.74
75273;BMP280;63869;52.344;16.928;2023-02-15T05:05:49;102313.28;;;1.73
75273;BMP280;63869;52.344;16.928;2023-02-15T05:08:14;102315.13;;;1.72
75273;BMP280;63869;52.344;16.928;2023-02-15T05:10:41;102283.94;;;1.52
75273;BMP280;63869;52.344;16.928;2023-02-15T05:13:07;102314.66;;;1.70
75273;BMP280;63869;52.344;16.928;2023-02-15T05:15:32;102295.06;;;1.63
75273;BMP280;63869;52.344;16.928;2023-02-15T05:17:57;102284.13;;;1.56
75273;BMP280;63869;52.344;16.928;2023-02-15T05:20:23;102297.69;;;1.63
75273;BMP280;63869;52.344;16.928;2023-02-15T05:22:48;102313.38;;;1.68
75273;BMP280;63869;52.344;16.928;2023-02-15T05:25:13;102312.91;;;1.66
75273;BMP280;63869;52.344;16.928;2023-02-15T05:27:57;102309.59;;;1.60
75273;BMP280;63869;52.344;16.928;2023-02-15T05:30:41;102318.97;;;1.66
75273;BMP280;63869;52.344;16.928;2023-02-15T05:33:07;102305.97;;;1.56
75273;BMP280;63869;52.344;16.928;2023-02-15T05:35:34;102318.28;;;1.61
75273;BMP280;63869;52.344;16.928;2023-02-15T05:37:59;102318.09;;;1.57
75273;BMP280;63869;52.344;16.928;2023-02-15T05:40:26;102314.41;;;1.58
75273;BMP280;63869;52.344;16.928;2023-02-15T05:42:52;102302.97;;;1.49
75273;BMP280;63869;52.344;16.928;2023-02-15T05:45:17;102312.81;;;1.57
75273;BMP280;63869;52.344;16.928;2023-02-15T05:47:42;102302.09;;;1.53
75273;BMP280;63869;52.344;16.928;2023-02-15T05:50:08;102291.25;;;1.41
75273;BMP280;63869;52.344;16.928;2023-02-15T05:52:34;102288.53;;;1.46
75273;BMP280;63869;52.344;16.928;2023-02-15T05:54:59;102309.13;;;1.58
75273;BMP280;63869;52.344;16.928;2023-02-15T05:57:26;102297.88;;;1.52
75273;BMP280;63869;52.344;16.928;2023-02-15T05:59:52;102303.94;;;1.53
75273;BMP280;63869;52.344;16.928;2023-02-15T06:02:19;102303.84;;;1.58
75273;BMP280;63869;52.344;16.928;2023-02-15T06:04:45;102311.16;;;1.61
75273;BMP280;63869;52.344;16.928;2023-02-15T06:07:11;102312.25;;;1.60
75273;BMP280;63869;52.344;16.928;2023-02-15T06:09:36;102306.97;;;1.60
75273;BMP280;63869;52.344;16.928;2023-02-15T06:12:02;102313.22;;;1.64
75273;BMP280;63869;52.344;16.928;2023-02-15T06:14:27;102293.78;;;1.60
75273;BMP280;63869;52.344;16.928;2023-02-15T06:16:52;102302.84;;;1.68
75273;BMP280;63869;52.344;16.928;2023-02-15T06:19:17;102297.69;;;1.63
75273;BMP280;63869;52.344;16.928;2023-02-15T06:21:45;102305.19;;;1.56
75273;BMP280;63869;52.344;16.928;2023-02-15T06:24:10;102302.41;;;1.38
75273;BMP280;63869;52.344;16.928;2023-02-15T06:26:35;102278.75;;;1.11
75273;BMP280;63869;52.344;16.928;2023-02-15T06:29:01;102275.88;;;0.94
75273;BMP280;63869;52.344;16.928;2023-02-15T06:31:26;102300.16;;;0.90
75273;BMP280;63869;52.344;16.928;2023-02-15T06:33:51;102302.00;;;0.76
75273;BMP280;63869;52.344;16.928;2023-02-15T06:36:16;102289.88;;;0.61
75273;BMP280;63869;52.344;16.928;2023-02-15T06:38:42;102291.84;;;0.56
75273;BMP280;63869;52.344;16.928;2023-02-15T06:41:07;102287.03;;;0.44
75273;BMP280;63869;52.344;16.928;2023-02-15T06:43:32;102273.94;;;0.25
75273;BMP280;63869;52.344;16.928;2023-02-15T06:45:59;102266.72;;;0.17
75273;BMP280;63869;52.344;16.928;2023-02-15T06:48:24;102280.84;;;0.21
75273;BMP280;63869;52.344;16.928;2023-02-15T06:50:50;102297.53;;;0.30
75273;BMP280;63869;52.344;16.928;2023-02-15T06:53:15;102292.84;;;0.27
75273;BMP280;63869;52.344;16.928;2023-02-15T06:55:41;102273.06;;;0.16
75273;BMP280;63869;52.344;16.928;2023-02-15T06:58:06;102292.56;;;0.29
75273;BMP280;63869;52.344;16.928;2023-02-15T07:00:31;102283.47;;;0.21
75273;BMP280;63869;52.344;16.928;2023-02-15T07:02:58;102271.69;;;0.19
75273;BMP280;63869;52.344;16.928;2023-02-15T07:05:25;102255.63;;;0.20
75273;BMP280;63869;52.344;16.928;2023-02-15T07:07:55;102284.69;;;0.43
75273;BMP280;63869;52.344;16.928;2023-02-15T07:10:21;102277.28;;;0.45
75273;BMP280;63869;52.344;16.928;2023-02-15T07:12:46;102257.41;;;0.39
75273;BMP280;63869;52.344;16.928;2023-02-15T07:15:14;102283.84;;;0.61
75273;BMP280;63869;52.344;16.928;2023-02-15T07:17:40;102279.28;;;0.67
75273;BMP280;63869;52.344;16.928;2023-02-15T07:20:11;102278.91;;;0.73
75273;BMP280;63869;52.344;16.928;2023-02-15T07:22:37;102257.84;;;0.73
75273;BMP280;63869;52.344;16.928;2023-02-15T07:25:03;102274.91;;;0.89
75273;BMP280;63869;52.344;16.928;2023-02-15T07:27:30;102269.34;;;0.91
75273;BMP280;63869;52.344;16.928;2023-02-15T07:29:55;102248.00;;;0.93
75273;BMP280;63869;52.344;16.928;2023-02-15T07:32:21;102265.59;;;1.11
75273;BMP280;63869;52.344;16.928;2023-02-15T07:34:46;102251.13;;;1.08
75273;BMP280;63869;52.344;16.928;2023-02-15T07:37:11;102250.16;;;1.18
75273;BMP280;63869;52.344;16.928;2023-02-15T07:39:37;102259.59;;;1.33
75273;BMP280;63869;52.344;16.928;2023-02-15T07:42:02;102248.13;;;1.37
75273;BMP280;63869;52.344;16.928;2023-02-15T07:44:28;102253.19;;;1.47
75273;BMP280;63869;52.344;16.928;2023-02-15T07:46:53;102244.09;;;1.53
75273;BMP280;63869;52.344;16.928;2023-02-15T07:49:18;102267.50;;;1.69
75273;BMP280;63869;52.344;16.928;2023-02-15T07:51:44;102267.28;;;1.79
75273;BMP280;63869;52.344;16.928;2023-02-15T07:54:09;102266.84;;;1.86
75273;BMP280;63869;52.344;16.928;2023-02-15T07:56:34;102263.50;;;1.94
75273;BMP280;63869;52.344;16.928;2023-02-15T07:59:00;102262.47;;;2.03
75273;BMP280;63869;52.344;16.928;2023-02-15T08:01:31;102254.75;;;2.07
75273;BMP280;63869;52.344;16.928;2023-02-15T08:03:57;102247.78;;;2.11
75273;BMP280;63869;52.344;16.928;2023-02-15T08:06:25;102247.25;;;2.23
75273;BMP280;63869;52.344;16.928;2023-02-15T08:08:51;102233.09;;;2.19
75273;BMP280;63869;52.344;16.928;2023-02-15T08:11:19;102237.03;;;2.30
75273;BMP280;63869;52.344;16.928;2023-02-15T08:16:47;102230.25;;;2.46
75273;BMP280;63869;52.344;16.928;2023-02-15T08:19:21;102225.91;;;2.50
75273;BMP280;63869;52.344;16.928;2023-02-15T08:21:51;102218.66;;;2.56
75273;BMP280;63869;52.344;16.928;2023-02-15T08:24:19;102226.94;;;2.71
75273;BMP280;63869;52.344;16.928;2023-02-15T08:26:45;102210.78;;;2.73
75273;BMP280;63869;52.344;16.928;2023-02-15T08:29:12;102222.94;;;2.91
75273;BMP280;63869;52.344;16.928;2023-02-15T08:31:37;102203.22;;;2.89
75273;BMP280;63869;52.344;16.928;2023-02-15T08:34:04;102208.16;;;2.99
75273;BMP280;63869;52.344;16.928;2023-02-15T08:36:30;102197.91;;;2.97
75273;BMP280;63869;52.344;16.928;2023-02-15T08:38:58;102208.66;;;3.10
75273;BMP280;63869;52.344;16.928;2023-02-15T08:41:29;102206.66;;;3.15
75273;BMP280;63869;52.344;16.928;2023-02-15T08:43:57;102212.91;;;3.19
75273;BMP280;63869;52.344;16.928;2023-02-15T08:46:27;102212.56;;;3.29
75273;BMP280;63869;52.344;16.928;2023-02-15T08:48:54;102199.97;;;3.35
75273;BMP280;63869;52.344;16.928;2023-02-15T08:51:31;102204.16;;;3.45
75273;BMP280;63869;52.344;16.928;2023-02-15T08:53:59;102199.19;;;3.43
75273;BMP280;63869;52.344;16.928;2023-02-15T08:56:28;102203.06;;;3.54
75273;BMP280;63869;52.344;16.928;2023-02-15T08:58:55;102190.94;;;3.53
75273;BMP280;63869;52.344;16.928;2023-02-15T09:01:23;102199.16;;;3.60
75273;BMP280;63869;52.344;16.928;2023-02-15T09:03:54;102195.28;;;3.66
75273;BMP280;63869;52.344;16.928;2023-02-15T09:06:21;102193.56;;;3.70
75273;BMP280;63869;52.344;16.928;2023-02-15T09:08:47;102189.63;;;3.77
75273;BMP280;63869;52.344;16.928;2023-02-15T09:11:20;102194.47;;;3.83
75273;BMP280;63869;52.344;16.928;2023-02-15T09:13:56;102194.75;;;3.90
75273;BMP280;63869;52.344;16.928;2023-02-15T09:16:23;102180.44;;;3.91
75273;BMP280;63869;52.344;16.928;2023-02-15T09:18:50;102190.34;;;4.03
75273;BMP280;63869;52.344;16.928;2023-02-15T09:21:18;102179.91;;;4.07
75273;BMP280;63869;52.344;16.928;2023-02-15T09:23:46;102172.72;;;4.16
75273;BMP280;63869;52.344;16.928;2023-02-15T09:26:14;102179.47;;;4.34
75273;BMP280;63869;52.344;16.928;2023-02-15T09:28:40;102174.59;;;4.45
75273;BMP280;63869;52.344;16.928;2023-02-15T09:31:14;102172.22;;;4.52
75273;BMP280;63869;52.344;16.928;2023-02-15T09:33:41;102177.44;;;4.60
75273;BMP280;63869;52.344;16.928;2023-02-15T09:38:58;102166.16;;;4.72
75273;BMP280;63869;52.344;16.928;2023-02-15T09:50:12;102164.47;;;4.88
75273;BMP280;63869;52.344;16.928;2023-02-15T09:55:24;102154.38;;;5.03
75273;BMP280;63869;52.344;16.928;2023-02-15T10:03:51;102142.38;;;5.05
75273;BMP280;63869;52.344;16.928;2023-02-15T10:06:43;102124.25;;;5.07
75273;BMP280;63869;52.344;16.928;2023-02-15T10:09:35;102129.91;;;5.18
75273;BMP280;63869;52.344;16.928;2023-02-15T10:15:11;102128.31;;;5.38
75273;BMP280;63869;52.344;16.928;2023-02-15T10:23:29;102120.81;;;5.64
75273;BMP280;63869;52.344;16.928;2023-02-15T10:26:11;102112.88;;;5.76
75273;BMP280;63869;52.344;16.928;2023-02-15T10:28:46;102101.59;;;5.79
75273;BMP280;63869;52.344;16.928;2023-02-15T10:31:45;102103.13;;;5.92
75273;BMP280;63869;52.344;16.928;2023-02-15T10:34:24;102101.19;;;6.02
75273;BMP280;63869;52.344;16.928;2023-02-15T10:47:48;102093.78;;;6.35
75273;BMP280;63869;52.344;16.928;2023-02-15T10:50:48;102093.88;;;6.39
75273;BMP280;63869;52.344;16.928;2023-02-15T10:56:20;102088.44;;;6.47
75273;BMP280;63869;52.344;16.928;2023-02-15T10:59:13;102088.38;;;6.59
75273;BMP280;63869;52.344;16.928;2023-02-15T11:01:51;102068.19;;;6.71
75273;BMP280;63869;52.344;16.928;2023-02-15T11:10:24;102063.16;;;6.97
75273;BMP280;63869;52.344;16.928;2023-02-15T11:12:54;102045.28;;;6.94
75273;BMP280;63869;52.344;16.928;2023-02-15T11:15:32;102062.41;;;7.12
75273;BMP280;63869;52.344;16.928;2023-02-15T11:18:13;102043.38;;;7.10
75273;BMP280;63869;52.344;16.928;2023-02-15T11:20:56;102049.22;;;7.16
75273;BMP280;63869;52.344;16.928;2023-02-15T11:23:24;102019.16;;;7.00
75273;BMP280;63869;52.344;16.928;2023-02-15T11:25:58;102043.53;;;7.17
75273;BMP280;63869;52.344;16.928;2023-02-15T11:28:31;102028.84;;;7.23
75273;BMP280;63869;52.344;16.928;2023-02-15T11:30:58;102052.97;;;7.46
75273;BMP280;63869;52.344;16.928;2023-02-15T11:33:29;102014.88;;;7.42
75273;BMP280;63869;52.344;16.928;2023-02-15T11:36:07;102018.53;;;7.53
75273;BMP280;63869;52.344;16.928;2023-02-15T11:38:34;102038.06;;;7.77
75273;BMP280;63869;52.344;16.928;2023-02-15T11:41:04;102034.75;;;7.83
75273;BMP280;63869;52.344;16.928;2023-02-15T11:43:42;102036.78;;;7.90
75273;BMP280;63869;52.344;16.928;2023-02-15T11:46:11;102038.41;;;7.94
75273;BMP280;63869;52.344;16.928;2023-02-15T11:48:37;102026.28;;;7.97
75273;BMP280;63869;52.344;16.928;2023-02-15T11:51:03;102027.22;;;8.05
75273;BMP280;63869;52.344;16.928;2023-02-15T11:53:32;102036.09;;;8.12
75273;BMP280;63869;52.344;16.928;2023-02-15T11:55:59;102014.84;;;8.16
75273;BMP280;63869;52.344;16.928;2023-02-15T11:58:43;102022.50;;;8.37
75273;BMP280;63869;52.344;16.928;2023-02-15T12:01:22;102013.84;;;8.43
75273;BMP280;63869;52.344;16.928;2023-02-15T12:04:08;101984.84;;;8.38
75273;BMP280;63869;52.344;16.928;2023-02-15T12:06:38;102008.25;;;8.71
75273;BMP280;63869;52.344;16.928;2023-02-15T12:11:37;101978.66;;;8.80
75273;BMP280;63869;52.344;16.928;2023-02-15T12:14:06;102010.78;;;9.13
75273;BMP280;63869;52.344;16.928;2023-02-15T12:16:40;102005.06;;;9.11
75273;BMP280;63869;52.344;16.928;2023-02-15T12:19:13;101985.88;;;9.02
75273;BMP280;63869;52.344;16.928;2023-02-15T12:21:48;102012.78;;;9.16
75273;BMP280;63869;52.344;16.928;2023-02-15T12:24:18;102000.25;;;9.20
75273;BMP280;63869;52.344;16.928;2023-02-15T12:26:44;101996.19;;;9.30
75273;BMP280;63869;52.344;16.928;2023-02-15T12:29:21;101983.38;;;9.43
75273;BMP280;63869;52.344;16.928;2023-02-15T12:31:50;101987.00;;;9.57
75273;BMP280;63869;52.344;16.928;2023-02-15T12:34:35;101976.13;;;9.73
75273;BMP280;63869;52.344;16.928;2023-02-15T12:37:09;101976.78;;;9.96
75273;BMP280;63869;52.344;16.928;2023-02-15T12:39:36;101983.41;;;10.10
75273;BMP280;63869;52.344;16.928;2023-02-15T12:42:05;101980.53;;;10.29
75273;BMP280;63869;52.344;16.928;2023-02-15T12:44:38;101980.56;;;10.32
75273;BMP280;63869;52.344;16.928;2023-02-15T12:47:04;101977.53;;;10.34
75273;BMP280;63869;52.344;16.928;2023-02-15T12:49:35;101969.91;;;10.40
75273;BMP280;63869;52.344;16.928;2023-02-15T12:52:05;101970.78;;;10.54
75273;BMP280;63869;52.344;16.928;2023-02-15T12:54:41;101966.66;;;10.60
75273;BMP280;63869;52.344;16.928;2023-02-15T12:57:27;101968.69;;;10.74
75273;BMP280;63869;52.344;16.928;2023-02-15T13:00:00;101937.66;;;10.69
75273;BMP280;63869;52.344;16.928;2023-02-15T13:02:41;101961.16;;;11.01
75273;BMP280;63869;52.344;16.928;2023-02-15T13:11:07;101947.97;;;11.40
75273;BMP280;63869;52.344;16.928;2023-02-15T13:13:38;101931.53;;;11.49
75273;BMP280;63869;52.344;16.928;2023-02-15T13:16:12;101935.81;;;11.53
75273;BMP280;63869;52.344;16.928;2023-02-15T13:18:40;101918.94;;;11.46
75273;BMP280;63869;52.344;16.928;2023-02-15T13:21:19;101937.72;;;11.70
75273;BMP280;63869;52.344;16.928;2023-02-15T13:23:53;101930.91;;;11.84
75273;BMP280;63869;52.344;16.928;2023-02-15T13:26:22;101940.06;;;11.97
75273;BMP280;63869;52.344;16.928;2023-02-15T13:28:52;101940.84;;;12.01
75273;BMP280;63869;52.344;16.928;2023-02-15T13:31:21;101925.53;;;12.05
75273;BMP280;63869;52.344;16.928;2023-02-15T13:33:54;101922.47;;;12.03
75273;BMP280;63869;52.344;16.928;2023-02-15T13:36:30;101928.59;;;12.18
75273;BMP280;63869;52.344;16.928;2023-02-15T13:39:40;101925.91;;;12.25
75273;BMP280;63869;52.344;16.928;2023-02-15T13:42:26;101924.75;;;12.36
75273;BMP280;63869;52.344;16.928;2023-02-15T13:47:50;101920.13;;;12.62
75273;BMP280;63869;52.344;16.928;2023-02-15T13:56:02;101925.50;;;12.55
75273;BMP280;63869;52.344;16.928;2023-02-15T14:06:20;101924.94;;;13.09
75273;BMP280;63869;52.344;16.928;2023-02-15T14:27:24;101901.16;;;13.11
75273;BMP280;63869;52.344;16.928;2023-02-15T14:29:56;101893.09;;;13.04
75273;BMP280;63869;52.344;16.928;2023-02-15T14:32:35;101881.28;;;12.95
75273;BMP280;63869;52.344;16.928;2023-02-15T14:35:05;101885.19;;;12.79
75273;BMP280;63869;52.344;16.928;2023-02-15T14:37:48;101889.00;;;12.82
75273;BMP280;63869;52.344;16.928;2023-02-15T14:40:25;101893.94;;;12.91
75273;BMP280;63869;52.344;16.928;2023-02-15T14:43:19;101891.66;;;12.93
75273;BMP280;63869;52.344;16.928;2023-02-15T14:45:58;101880.25;;;12.67
75273;BMP280;63869;52.344;16.928;2023-02-15T14:48:41;101889.44;;;12.56
75273;BMP280;63869;52.344;16.928;2023-02-15T14:51:07;101890.22;;;12.49
75273;BMP280;63869;52.344;16.928;2023-02-15T14:53:35;101893.31;;;12.37
75273;BMP280;63869;52.344;16.928;2023-02-15T15:01:25;101874.94;;;12.25
75273;BMP280;63869;52.344;16.928;2023-02-15T15:03:53;101875.72;;;12.32
75273;BMP280;63869;52.344;16.928;2023-02-15T15:06:27;101846.22;;;12.25
75273;BMP280;63869;52.344;16.928;2023-02-15T15:09:10;101874.09;;;12.60
75273;BMP280;63869;52.344;16.928;2023-02-15T15:11:47;101876.41;;;12.68
75273;BMP280;63869;52.344;16.928;2023-02-15T15:16:56;101848.81;;;12.57
75273;BMP280;63869;52.344;16.928;2023-02-15T15:22:18;101859.59;;;12.36
75273;BMP280;63869;52.344;16.928;2023-02-15T15:32:42;101839.00;;;11.83
75273;BMP280;63869;52.344;16.928;2023-02-15T15:43:58;101850.00;;;11.21
75273;BMP280;63869;52.344;16.928;2023-02-15T15:49:32;101851.25;;;10.58
75273;BMP280;63869;52.344;16.928;2023-02-15T15:52:02;101845.31;;;10.28
75273;BMP280;63869;52.344;16.928;2023-02-15T15:54:28;101847.41;;;10.05
75273;BMP280;63869;52.344;16.928;2023-02-15T15:56:58;101842.66;;;9.80
75273;BMP280;63869;52.344;16.928;2023-02-15T15:59:29;101841.66;;;9.58
75273;BMP280;63869;52.344;16.928;2023-02-15T16:01:55;101803.03;;;9.12
75273;BMP280;63869;52.344;16.928;2023-02-15T16:04:27;101833.84;;;9.06
75273;BMP280;63869;52.344;16.928;2023-02-15T16:06:55;101826.97;;;8.75
75273;BMP280;63869;52.344;16.928;2023-02-15T16:09:24;101833.91;;;8.53
75273;BMP280;63869;52.344;16.928;2023-02-15T16:11:54;101805.47;;;8.11
75273;BMP280;63869;52.344;16.928;2023-02-15T16:14:29;101833.19;;;8.07
75273;BMP280;63869;52.344;16.928;2023-02-15T16:16:58;101826.34;;;7.86
75273;BMP280;63869;52.344;16.928;2023-02-15T16:19:28;101821.72;;;7.60
75273;BMP280;63869;52.344;16.928;2023-02-15T16:21:55;101823.34;;;7.46
75273;BMP280;63869;52.344;16.928;2023-02-15T16:24:46;101815.38;;;7.26
75273;BMP280;63869;52.344;16.928;2023-02-15T16:27:35;101807.63;;;7.02
75273;BMP280;63869;52.344;16.928;2023-02-15T16:32:44;101781.72;;;6.45
75273;BMP280;63869;52.344;16.928;2023-02-15T16:35:14;101807.91;;;6.46
75273;BMP280;63869;52.344;16.928;2023-02-15T16:37:40;101795.00;;;6.29
75273;BMP280;63869;52.344;16.928;2023-02-15T16:40:06;101797.75;;;6.17
75273;BMP280;63869;52.344;16.928;2023-02-15T16:42:31;101782.03;;;5.96
75273;BMP280;63869;52.344;16.928;2023-02-15T16:45:07;101796.44;;;5.95
75273;BMP280;63869;52.344;16.928;2023-02-15T16:47:38;101781.94;;;5.77
75273;BMP280;63869;52.344;16.928;2023-02-15T16:50:05;101793.97;;;5.86
75273;BMP280;63869;52.344;16.928;2023-02-15T16:52:31;101792.88;;;5.75
75273;BMP280;63869;52.344;16.928;2023-02-15T16:54:59;101779.25;;;5.61
75273;BMP280;63869;52.344;16.928;2023-02-15T16:57:31;101800.00;;;5.71
75273;BMP280;63869;52.344;16.928;2023-02-15T17:00:06;101797.50;;;5.78
75273;BMP280;63869;52.344;16.928;2023-02-15T17:02:33;101769.00;;;5.75
75273;BMP280;63869;52.344;16.928;2023-02-15T17:07:27;101788.91;;;5.97
75273;BMP280;63869;52.344;16.928;2023-02-15T17:09:54;101782.94;;;6.00
75273;BMP280;63869;52.344;16.928;2023-02-15T17:12:45;101782.25;;;6.03
75273;BMP280;63869;52.344;16.928;2023-02-15T17:18:54;101770.16;;;6.06
75273;BMP280;63869;52.344;16.928;2023-02-15T17:21:27;101769.47;;;6.09
75273;BMP280;63869;52.344;16.928;2023-02-15T17:24:00;101759.53;;;6.06
75273;BMP280;63869;52.344;16.928;2023-02-15T17:26:32;101759.72;;;6.13
75273;BMP280;63869;52.344;16.928;2023-02-15T17:29:02;101759.88;;;6.20
75273;BMP280;63869;52.344;16.928;2023-02-15T17:31:35;101763.72;;;6.22
75273;BMP280;63869;52.344;16.928;2023-02-15T17:34:01;101757.81;;;6.29
75273;BMP280;63869;52.344;16.928;2023-02-15T17:36:28;101761.75;;;6.35
75273;BMP280;63869;52.344;16.928;2023-02-15T17:41:23;101750.53;;;6.42
75273;BMP280;63869;52.344;16.928;2023-02-15T17:43:49;101742.97;;;6.44
75273;BMP280;63869;52.344;16.928;2023-02-15T17:46:14;101746.03;;;6.46
75273;BMP280;63869;52.344;16.928;2023-02-15T17:48:44;101746.81;;;6.46
75273;BMP280;63869;52.344;16.928;2023-02-15T17:51:12;101748.44;;;6.51
75273;BMP280;63869;52.344;16.928;2023-02-15T17:53:38;101749.22;;;6.51
75273;BMP280;63869;52.344;16.928;2023-02-15T17:56:03;101742.88;;;6.56
75273;BMP280;63869;52.344;16.928;2023-02-15T17:58:35;101744.75;;;6.55
75273;BMP280;63869;52.344;16.928;2023-02-15T18:01:06;101746.34;;;6.60
75273;BMP280;63869;52.344;16.928;2023-02-15T18:03:52;101738.31;;;6.56
75273;BMP280;63869;52.344;16.928;2023-02-15T18:06:39;101743.34;;;6.61
75273;BMP280;63869;52.344;16.928;2023-02-15T18:09:24;101738.31;;;6.56
75273;BMP280;63869;52.344;16.928;2023-02-15T18:14:42;101744.00;;;6.55
75273;BMP280;63869;52.344;16.928;2023-02-15T18:17:10;101756.16;;;6.56
75273;BMP280;63869;52.344;16.928;2023-02-15T18:19:37;101751.53;;;6.53
75273;BMP280;63869;52.344;16.928;2023-02-15T18:22:09;101758.31;;;6.50
75273;BMP280;63869;52.344;16.928;2023-02-15T18:24:35;101764.31;;;6.47
75273;BMP280;63869;52.344;16.928;2023-02-15T18:27:00;101730.84;;;6.27
75273;BMP280;63869;52.344;16.928;2023-02-15T18:29:25;101749.84;;;6.29
75273;BMP280;63869;52.344;16.928;2023-02-15T18:31:52;101751.31;;;6.26
75273;BMP280;63869;52.344;16.928;2023-02-15T18:34:27;101760.31;;;6.22
75273;BMP280;63869;52.344;16.928;2023-02-15T18:36:56;101735.25;;;5.88
75273;BMP280;63869;52.344;16.928;2023-02-15T18:41:52;101753.19;;;5.51
75273;BMP280;63869;52.344;16.928;2023-02-15T18:44:18;101751.09;;;5.28
75273;BMP280;63869;52.344;16.928;2023-02-15T18:46:43;101741.03;;;4.94
75273;BMP280;63869;52.344;16.928;2023-02-15T18:49:09;101747.78;;;4.79
75273;BMP280;63869;52.344;16.928;2023-02-15T18:51:35;101745.72;;;4.60
75273;BMP280;63869;52.344;16.928;2023-02-15T18:54:05;101720.78;;;4.25
75273;BMP280;63869;52.344;16.928;2023-02-15T18:56:36;101731.25;;;4.21
75273;BMP280;63869;52.344;16.928;2023-02-15T18:59:01;101739.00;;;4.14
75273;BMP280;63869;52.344;16.928;2023-02-15T19:01:27;101727.94;;;4.00
75273;BMP280;63869;52.344;16.928;2023-02-15T19:03:52;101718.97;;;3.80
75273;BMP280;63869;52.344;16.928;2023-02-15T19:06:21;101729.31;;;3.73
75273;BMP280;63869;52.344;16.928;2023-02-15T19:08:51;101717.56;;;3.62
75273;BMP280;63869;52.344;16.928;2023-02-15T19:11:20;101719.53;;;3.53
75273;BMP280;63869;52.344;16.928;2023-02-15T19:13:48;101711.56;;;3.41
75273;BMP280;63869;52.344;16.928;2023-02-15T19:18:51;101703.97;;;3.18
75273;BMP280;63869;52.344;16.928;2023-02-15T19:21:17;101688.38;;;3.04
75273;BMP280;63869;52.344;16.928;2023-02-15T19:23:44;101707.44;;;3.10
75273;BMP280;63869;52.344;16.928;2023-02-15T19:26:13;101700.34;;;3.02
75273;BMP280;63869;52.344;16.928;2023-02-15T19:28:38;101700.19;;;2.98
75273;BMP280;63869;52.344;16.928;2023-02-15T19:31:03;101701.72;;;2.87
75273;BMP280;63869;52.344;16.928;2023-02-15T19:33:29;101706.22;;;2.87
75273;BMP280;63869;52.344;16.928;2023-02-15T19:35:54;101702.34;;;2.84
75273;BMP280;63869;52.344;16.928;2023-02-15T19:38:28;101702.53;;;2.79
75273;BMP280;63869;52.344;16.928;2023-02-15T19:41:04;101684.25;;;2.65
75273;BMP280;63869;52.344;16.928;2023-02-15T19:43:34;101704.44;;;2.70
75273;BMP280;63869;52.344;16.928;2023-02-15T19:45:59;101701.97;;;2.65
75273;BMP280;63869;52.344;16.928;2023-02-15T19:48:25;101695.03;;;2.60
75273;BMP280;63869;52.344;16.928;2023-02-15T19:50:50;101688.72;;;2.53
75273;BMP280;63869;52.344;16.928;2023-02-15T19:53:27;101679.47;;;2.38
75273;BMP280;63869;52.344;16.928;2023-02-15T19:55:52;101691.38;;;2.44
75273;BMP280;63869;52.344;16.928;2023-02-15T19:58:19;101689.84;;;2.43
75273;BMP280;63869;52.344;16.928;2023-02-15T20:00:47;101674.63;;;2.40
75273;BMP280;63869;52.344;16.928;2023-02-15T20:03:13;101678.38;;;2.39
75273;BMP280;63869;52.344;16.928;2023-02-15T20:05:38;101669.38;;;2.40
75273;BMP280;63869;52.344;16.928;2023-02-15T20:08:05;101671.22;;;2.39
75273;BMP280;63869;52.344;16.928;2023-02-15T20:10:34;101661.47;;;2.31
75273;BMP280;63869;52.344;16.928;2023-02-15T20:13:01;101657.88;;;2.36
75273;BMP280;63869;52.344;16.928;2023-02-15T20:15:32;101665.09;;;2.27
75273;BMP280;63869;52.344;16.928;2023-02-15T20:18:00;101654.72;;;2.22
75273;BMP280;63869;52.344;16.928;2023-02-15T20:20:33;101633.03;;;2.07
75273;BMP280;63869;52.344;16.928;2023-02-15T20:23:02;101644.50;;;2.11
75273;BMP280;63869;52.344;16.928;2023-02-15T20:25:29;101631.66;;;2.01
75273;BMP280;63869;52.344;16.928;2023-02-15T20:27:55;101643.75;;;2.02
75273;BMP280;63869;52.344;16.928;2023-02-15T20:30:28;101636.78;;;1.98
75273;BMP280;63869;52.344;16.928;2023-02-15T20:32:57;101636.19;;;1.92
75273;BMP280;63869;52.344;16.928;2023-02-15T20:35:25;101626.56;;;1.88
75273;BMP280;63869;52.344;16.928;2023-02-15T20:37:54;101641.00;;;1.90